CheckWX is a tool to help pilots better visualize weather data.  It is not intended as a substitute for an official pre-flight weather briefing.

12:13:04 UTC

CYYY TAF
Mont Joli Airport
Mont-Joli, Canada
TAF AMD CYYY 131146Z 1311/1320 33025G35KT P6SM -SN OVC040 TEMPO 1311/1314 2SM -SN BLSN OVC015 FM131400 31020G30KT 6SM -SN OVC025 TEMPO 1314/1316 3SM -SN BLSN OVC015 FM131600 31020G30KT P6SM -SN BKN030 RMK NXT FCST BY 131400Z

Nov-13@
11:00 UTC

Nov-13 @ 11:00 UTC

Nov-13@
14:00 UTC

Nov-13 @ 14:00 UTC

TAF AMD CYYY 131146Z 1311/1320 33025G35KT P6SM -SN OVC040
Wind
  • 330° at 25 KTS
  • {Gusting to 35 KTS
Conditions
Light Snow
Cloud Levels
  • Overcast at 4,000' AGL

Nov-13@
11:00 UTC

Nov-13 @ 11:00 UTC

Nov-13@
14:00 UTC

Nov-13 @ 14:00 UTC

TEMPO 1311/1314 2SM -SN BLSN OVC015

Temporary

Temporary Changes expected for less than half the time period

Conditions
Light Snow, Blowing Snow
Cloud Levels
  • Overcast at 1,500' AGL

Nov-13@
14:00 UTC

Nov-13 @ 14:00 UTC

Nov-13@
16:00 UTC

Nov-13 @ 16:00 UTC

FM131400 31020G30KT 6SM -SN OVC025

From

From Standard forecast or significant change

Wind
  • 310° at 20 KTS
  • {Gusting to 30 KTS
Conditions
Light Snow
Cloud Levels
  • Overcast at 2,500' AGL

Nov-13@
14:00 UTC

Nov-13 @ 14:00 UTC

Nov-13@
16:00 UTC

Nov-13 @ 16:00 UTC

TEMPO 1314/1316 3SM -SN BLSN OVC015

Temporary

Temporary Changes expected for less than half the time period

Conditions
Light Snow, Blowing Snow
Cloud Levels
  • Overcast at 1,500' AGL

Nov-13@
16:00 UTC

Nov-13 @ 16:00 UTC

Nov-13@
20:00 UTC

Nov-13 @ 20:00 UTC

FM131600 31020G30KT P6SM -SN BKN030 RMK NXT FCST BY 131400Z

From

From Standard forecast or significant change

Wind
  • 310° at 20 KTS
  • {Gusting to 30 KTS
Conditions
Light Snow
Cloud Levels
  • Broken at 3,000' AGL